createdAt,value
2022-12-04T13:15:01.000Z,101.63
2022-12-04T13:20:01.000Z,101.69
2022-12-04T13:25:01.000Z,101.69
2022-12-04T13:30:01.000Z,101.69
2022-12-04T13:35:02.000Z,101.69
2022-12-04T13:40:02.000Z,101.68
2022-12-04T13:45:02.000Z,101.69
2022-12-04T13:50:01.000Z,101.69
2022-12-04T13:55:02.000Z,101.69
2022-12-04T14:00:01.000Z,101.72
2022-12-04T14:05:01.000Z,101.69
2022-12-04T14:10:01.000Z,101.72
2022-12-04T14:15:01.000Z,101.72
2022-12-04T14:20:01.000Z,101.72
2022-12-04T14:25:01.000Z,101.74
2022-12-04T14:30:01.000Z,101.74
2022-12-04T14:35:02.000Z,101.74
2022-12-04T14:40:02.000Z,101.68
2022-12-04T14:45:02.000Z,101.68
2022-12-04T14:50:01.000Z,101.65
2022-12-04T14:55:01.000Z,101.70
2022-12-04T15:00:02.000Z,101.68
2022-12-04T15:05:01.000Z,101.68
2022-12-04T15:10:02.000Z,101.65
2022-12-04T15:15:02.000Z,101.68
2022-12-04T15:20:02.000Z,101.74
2022-12-04T15:25:01.000Z,101.74
2022-12-04T15:30:02.000Z,101.74
2022-12-04T15:35:02.000Z,101.74
2022-12-04T15:40:02.000Z,101.74
2022-12-04T15:45:02.000Z,101.73
2022-12-04T15:50:01.000Z,101.74
2022-12-04T15:55:02.000Z,101.73
2022-12-04T16:00:01.000Z,101.73
2022-12-04T16:05:03.000Z,101.73
2022-12-04T16:10:02.000Z,101.75
2022-12-04T16:15:02.000Z,101.75
2022-12-04T16:20:01.000Z,101.75
2022-12-04T16:25:02.000Z,101.75
2022-12-04T16:30:02.000Z,101.75
2022-12-04T16:35:02.000Z,101.75
2022-12-04T16:40:01.000Z,101.73
2022-12-04T16:45:02.000Z,101.70
2022-12-04T16:50:01.000Z,101.70
2022-12-04T16:55:01.000Z,101.75
2022-12-04T17:00:02.000Z,101.78
2022-12-04T17:05:02.000Z,101.78
2022-12-04T17:10:02.000Z,101.75
2022-12-04T17:15:02.000Z,101.75
2022-12-04T17:20:02.000Z,101.75
2022-12-04T17:25:02.000Z,101.73
2022-12-04T17:30:02.000Z,101.73
2022-12-04T17:35:02.000Z,101.70
2022-12-04T17:40:02.000Z,101.70
2022-12-04T17:45:02.000Z,101.74
2022-12-04T17:50:02.000Z,101.72
2022-12-04T17:55:02.000Z,101.72
2022-12-04T18:00:02.000Z,101.72
2022-12-04T18:05:02.000Z,101.72
2022-12-04T18:10:01.000Z,101.72
2022-12-04T18:15:02.000Z,101.72
2022-12-04T18:20:02.000Z,101.69
2022-12-04T18:25:03.000Z,101.69
2022-12-04T18:30:03.000Z,101.69
2022-12-04T18:35:02.000Z,101.72
2022-12-04T18:40:01.000Z,101.69
2022-12-04T18:45:01.000Z,101.69
2022-12-04T18:50:02.000Z,101.69
2022-12-04T18:55:01.000Z,101.67
2022-12-04T19:00:02.000Z,101.69
2022-12-04T19:05:02.000Z,101.64
2022-12-04T19:10:01.000Z,101.69
2022-12-04T19:15:02.000Z,101.69
2022-12-04T19:20:02.000Z,101.69
2022-12-04T19:25:02.000Z,101.69
2022-12-04T19:30:02.000Z,101.69
2022-12-04T19:35:01.000Z,101.69
2022-12-04T19:40:02.000Z,101.67
2022-12-04T19:45:02.000Z,101.70
2022-12-04T19:50:02.000Z,101.73
2022-12-04T19:55:02.000Z,101.73
2022-12-04T20:00:02.000Z,101.75
2022-12-04T20:05:02.000Z,101.73
2022-12-04T20:10:02.000Z,101.73
2022-12-04T20:15:02.000Z,101.75
2022-12-04T20:20:02.000Z,101.73
2022-12-04T20:25:02.000Z,101.73
2022-12-04T20:30:02.000Z,101.70
2022-12-04T20:35:02.000Z,101.74
2022-12-04T20:40:02.000Z,101.72
2022-12-04T20:45:01.000Z,101.72
2022-12-04T20:50:02.000Z,101.72
2022-12-04T20:55:02.000Z,101.72
2022-12-04T21:00:02.000Z,101.74
2022-12-04T21:05:02.000Z,101.74
2022-12-04T21:10:02.000Z,101.74
2022-12-04T21:15:02.000Z,101.77
2022-12-04T21:20:02.000Z,101.80
2022-12-04T21:25:02.000Z,101.77
2022-12-04T21:30:02.000Z,101.80
2022-12-04T21:35:02.000Z,101.80
2022-12-04T21:40:02.000Z,101.83
2022-12-04T21:45:02.000Z,101.80
2022-12-04T21:50:02.000Z,101.80
2022-12-04T21:55:02.000Z,101.80
2022-12-04T22:00:02.000Z,101.78
2022-12-04T22:05:02.000Z,101.83
2022-12-04T22:10:02.000Z,101.83
2022-12-04T22:15:02.000Z,101.78
2022-12-04T22:20:02.000Z,101.75
2022-12-04T22:25:02.000Z,101.75
2022-12-04T22:30:02.000Z,101.73
2022-12-04T22:35:02.000Z,101.73
2022-12-04T22:40:02.000Z,101.75
2022-12-04T22:45:02.000Z,101.81
2022-12-04T22:50:02.000Z,101.81
2022-12-04T22:55:02.000Z,101.87
2022-12-04T23:00:02.000Z,101.89
2022-12-04T23:05:02.000Z,101.93
2022-12-04T23:10:02.000Z,101.89
2022-12-04T23:15:02.000Z,101.84
2022-12-04T23:20:02.000Z,101.83
2022-12-04T23:25:02.000Z,101.86
2022-12-04T23:30:02.000Z,101.83
2022-12-04T23:35:02.000Z,101.86
2022-12-04T23:40:02.000Z,101.86
2022-12-04T23:45:02.000Z,101.86
2022-12-04T23:50:02.000Z,101.86
2022-12-04T23:55:02.000Z,101.83
